createdAt,value
2023-10-17T00:07:36.184Z,6.73
2023-10-17T00:17:39.956Z,7.07
2023-10-17T00:27:44.576Z,7.03
2023-10-17T00:37:53.810Z,6.23
2023-10-17T00:47:59.490Z,7.53
2023-10-17T00:58:03.564Z,6.23
2023-10-17T01:08:08.632Z,6.57
2023-10-17T01:18:12.689Z,7.73
2023-10-17T01:28:17.282Z,7.60
2023-10-17T01:38:21.558Z,7.47
2023-10-17T01:48:26.697Z,7.13
2023-10-17T01:58:31.380Z,7.60
2023-10-17T02:08:37.413Z,7.73
2023-10-17T02:18:41.017Z,7.90
2023-10-17T02:28:50.334Z,6.70
2023-10-17T02:38:53.785Z,7.03
2023-10-17T02:48:58.998Z,7.00
2023-10-17T02:59:05.507Z,7.10
2023-10-17T03:09:33.514Z,6.97
2023-10-17T03:19:38.426Z,7.10
2023-10-17T03:29:47.245Z,6.70
2023-10-17T03:39:53.402Z,7.40
2023-10-17T03:49:58.297Z,6.23
2023-10-17T04:00:19.059Z,6.43
2023-10-17T04:10:23.853Z,7.67
2023-10-17T04:20:27.696Z,7.20
2023-10-17T04:30:36.703Z,6.23
2023-10-17T04:40:44.759Z,7.33
2023-10-17T04:50:57.636Z,6.83
2023-10-17T05:01:19.307Z,6.63
2023-10-17T05:11:41.163Z,7.67
2023-10-17T05:22:01.578Z,7.63
2023-10-17T05:32:29.384Z,7.53
2023-10-17T05:42:50.234Z,6.90
2023-10-17T05:53:11.960Z,6.93
2023-10-17T06:03:32.364Z,8.57
2023-10-17T06:13:55.387Z,8.77
2023-10-17T06:24:30.713Z,8.47
2023-10-17T06:34:35.519Z,8.60
2023-10-17T06:44:52.957Z,8.40
2023-10-17T06:55:00.904Z,7.10
2023-10-17T07:05:06.220Z,7.17
2023-10-17T07:15:14.646Z,7.80
2023-10-17T07:25:20.290Z,7.60
2023-10-17T07:35:31.582Z,7.77
2023-10-17T07:45:39.964Z,8.03
2023-10-17T07:55:47.677Z,7.93
2023-10-17T08:06:06.138Z,8.47
2023-10-17T08:16:12.310Z,8.20
2023-10-17T08:26:18.319Z,8.10
2023-10-17T08:36:25.069Z,7.80
2023-10-17T08:46:28.696Z,7.93
2023-10-17T08:56:38.173Z,7.80
2023-10-17T09:06:50.279Z,8.27
2023-10-17T09:17:12.150Z,8.17
2023-10-17T09:27:15.804Z,8.00
2023-10-17T09:37:20.825Z,8.67
2023-10-17T09:47:27.401Z,9.20
2023-10-17T09:57:34.790Z,7.97
2023-10-17T10:07:38.905Z,8.73
2023-10-17T10:17:50.464Z,9.40
2023-10-17T10:28:30.498Z,8.80
2023-10-17T10:38:35.427Z,9.53
2023-10-17T10:48:39.434Z,9.30
2023-10-17T10:58:49.142Z,9.43
2023-10-17T11:08:53.218Z,9.50
2023-10-17T11:18:57.863Z,8.57
2023-10-17T11:29:04.297Z,9.20
2023-10-17T11:39:09.912Z,6.90
2023-10-17T11:49:22.343Z,7.00
2023-10-17T11:59:28.602Z,5.83
2023-10-17T12:09:32.684Z,5.50
2023-10-17T12:19:37.413Z,6.07
2023-10-17T12:29:41.310Z,6.63
2023-10-17T12:39:48.406Z,6.30
2023-10-17T12:49:53.835Z,6.85
2023-10-17T13:00:00.224Z,7.30
2023-10-17T13:10:03.645Z,7.72
2023-10-17T13:20:17.414Z,7.90
2023-10-17T13:30:33.537Z,8.70
2023-10-17T13:40:38.130Z,9.23
2023-10-17T13:50:41.777Z,8.98
2023-10-17T14:00:51.261Z,7.78
2023-10-17T14:10:54.625Z,9.00
2023-10-17T14:21:18.170Z,9.15
2023-10-17T14:31:21.623Z,9.18
2023-10-17T14:41:28.116Z,8.95
2023-10-17T14:51:31.569Z,8.88
2023-10-17T15:01:36.454Z,8.95
2023-10-17T15:11:41.228Z,8.90
2023-10-17T15:21:45.793Z,9.32
2023-10-17T15:31:55.239Z,9.00
2023-10-17T15:42:01.056Z,9.65
2023-10-17T15:52:05.180Z,9.65
2023-10-17T16:02:09.942Z,10.90
2023-10-17T16:12:15.600Z,10.15
2023-10-17T16:22:20.289Z,11.20
2023-10-17T16:32:23.436Z,11.52
2023-10-17T16:42:28.829Z,12.60
2023-10-17T16:52:32.136Z,13.23
2023-10-17T17:02:36.936Z,13.83
2023-10-17T17:12:40.342Z,14.00
2023-10-17T17:22:46.021Z,14.60
2023-10-17T17:32:50.956Z,15.80
2023-10-17T17:42:55.671Z,16.63
2023-10-17T17:52:59.567Z,17.60
2023-10-17T18:03:05.101Z,16.70
2023-10-17T18:13:09.206Z,16.80
2023-10-17T18:23:17.690Z,17.93
2023-10-17T18:33:20.934Z,18.63
2023-10-17T18:43:25.598Z,18.23
2023-10-17T18:53:28.964Z,19.60
2023-10-17T19:03:34.227Z,18.13
2023-10-17T19:13:39.189Z,19.20
2023-10-17T19:23:45.169Z,19.80
2023-10-17T19:33:48.694Z,19.20
2023-10-17T19:43:53.330Z,20.20
2023-10-17T19:53:56.556Z,20.23
2023-10-17T20:04:01.137Z,19.47
2023-10-17T20:14:04.628Z,20.00
2023-10-17T20:24:12.109Z,20.20
2023-10-17T20:34:15.390Z,19.27
2023-10-17T20:44:20.878Z,20.63
2023-10-17T20:54:24.187Z,20.23
2023-10-17T21:04:28.961Z,20.27
2023-10-17T21:14:32.364Z,20.97
2023-10-17T21:24:37.535Z,20.77
2023-10-17T21:34:40.717Z,20.67
2023-10-17T21:44:45.226Z,20.40
2023-10-17T21:54:49.198Z,20.90
2023-10-17T22:04:53.798Z,20.80
2023-10-17T22:14:57.049Z,21.57
2023-10-17T22:25:01.656Z,21.23
2023-10-17T22:35:06.233Z,20.73
2023-10-17T22:45:12.780Z,21.47
2023-10-17T22:55:15.986Z,20.77
2023-10-17T23:05:22.106Z,19.97
2023-10-17T23:15:26.024Z,20.97
2023-10-17T23:25:32.503Z,21.33
2023-10-17T23:35:36.201Z,20.60
2023-10-17T23:45:40.873Z,20.13
2023-10-17T23:55:44.137Z,20.30
